createdAt,value
2023-05-05T00:01:05.232Z,4.78
2023-05-05T00:03:51.977Z,5.25
2023-05-05T00:06:38.351Z,4.60
2023-05-05T00:09:29.177Z,4.40
2023-05-05T00:15:06.042Z,5.43
2023-05-05T00:17:54.382Z,4.55
2023-05-05T00:20:40.746Z,5.35
2023-05-05T00:23:26.852Z,4.75
2023-05-05T00:26:13.085Z,5.22
2023-05-05T00:28:59.144Z,4.78
2023-05-05T00:31:50.392Z,4.63
2023-05-05T00:34:36.602Z,4.93
2023-05-05T00:37:22.507Z,4.45
2023-05-05T00:40:12.591Z,4.78
2023-05-05T00:42:59.722Z,4.38
2023-05-05T00:45:47.983Z,4.93
2023-05-05T00:48:34.424Z,5.40
2023-05-05T00:51:22.283Z,4.53
2023-05-05T00:54:09.878Z,4.57
2023-05-05T00:56:57.863Z,4.95
2023-05-05T00:59:44.916Z,4.93
2023-05-05T01:02:31.404Z,5.78
2023-05-05T01:05:21.884Z,5.05
2023-05-05T01:08:13.396Z,5.05
2023-05-05T01:11:10.956Z,6.28
2023-05-05T01:14:12.089Z,5.43
2023-05-05T01:17:04.629Z,5.13
2023-05-05T01:20:16.889Z,4.70
2023-05-05T01:25:59.423Z,4.28
2023-05-05T01:28:53.157Z,4.88
2023-05-05T01:31:59.194Z,4.22
2023-05-05T01:34:53.289Z,4.63
2023-05-05T01:37:59.817Z,4.05
2023-05-05T01:40:51.862Z,5.05
2023-05-05T01:43:57.367Z,4.22
2023-05-05T01:46:43.453Z,3.40
2023-05-05T01:49:29.938Z,5.70
2023-05-05T01:52:18.498Z,6.40
2023-05-05T01:55:05.079Z,5.28
2023-05-05T01:57:51.262Z,5.50
2023-05-05T02:00:38.235Z,4.88
2023-05-05T02:03:24.877Z,5.15
2023-05-05T02:06:12.105Z,3.95
2023-05-05T02:08:58.541Z,3.70
2023-05-05T02:11:44.797Z,4.60
2023-05-05T02:14:31.346Z,3.40
2023-05-05T02:17:20.896Z,4.07
2023-05-05T02:20:11.010Z,3.38
2023-05-05T02:23:15.926Z,3.85
2023-05-05T02:26:07.285Z,3.58
2023-05-05T02:28:58.617Z,4.50
2023-05-05T02:31:46.848Z,1.13
2023-05-05T02:34:40.264Z,6.60
2023-05-05T02:37:31.792Z,5.82
2023-05-05T02:40:22.663Z,5.60
2023-05-05T02:43:11.095Z,0.52
2023-05-05T02:45:57.388Z,0.40
2023-05-05T02:48:43.586Z,4.38
2023-05-05T02:51:30.916Z,4.15
2023-05-05T02:54:19.626Z,0.90
2023-05-05T02:57:05.722Z,0.98
2023-05-05T02:59:56.724Z,6.85
2023-05-05T03:02:56.959Z,0.93
2023-05-05T03:06:02.004Z,0.65
2023-05-05T03:09:07.413Z,0.85
2023-05-05T03:12:04.030Z,4.75
2023-05-05T03:14:58.654Z,4.07
2023-05-05T03:17:47.495Z,0.73
2023-05-05T03:20:34.198Z,1.05
2023-05-05T03:23:25.970Z,1.05
2023-05-05T03:26:19.445Z,3.70
2023-05-05T03:29:06.915Z,3.60
2023-05-05T03:31:55.358Z,1.40
2023-05-05T03:34:41.318Z,3.63
2023-05-05T03:37:28.019Z,0.63
2023-05-05T03:40:14.511Z,4.80
2023-05-05T03:43:01.483Z,0.68
2023-05-05T03:46:15.436Z,0.63
2023-05-05T03:49:02.720Z,0.50
2023-05-05T03:51:49.147Z,0.70
2023-05-05T03:54:38.341Z,1.30
2023-05-05T03:57:24.378Z,0.50
2023-05-05T04:00:12.022Z,4.18
2023-05-05T04:03:03.602Z,0.55
2023-05-05T04:05:53.668Z,0.70
2023-05-05T04:08:40.952Z,0.60
2023-05-05T04:11:27.059Z,0.68
2023-05-05T04:14:14.600Z,4.43
2023-05-05T04:17:00.878Z,1.40
2023-05-05T04:19:46.804Z,0.93
2023-05-05T04:22:33.035Z,1.65
2023-05-05T04:25:19.291Z,4.50
2023-05-05T04:28:06.725Z,4.00
2023-05-05T04:30:52.868Z,0.50
2023-05-05T04:33:38.851Z,0.55
2023-05-05T04:36:25.027Z,0.75
2023-05-05T04:39:11.215Z,0.77
2023-05-05T04:41:57.455Z,1.20
2023-05-05T04:44:43.908Z,2.05
2023-05-05T04:47:30.072Z,0.50
2023-05-05T04:50:16.640Z,1.25
2023-05-05T04:53:02.926Z,4.15
2023-05-05T04:55:49.252Z,4.88
2023-05-05T04:58:36.781Z,1.52
2023-05-05T05:01:22.755Z,1.15
2023-05-05T05:04:10.579Z,4.03
2023-05-05T05:06:58.450Z,1.23
2023-05-05T05:09:45.903Z,3.60
2023-05-05T05:12:32.289Z,0.95
2023-05-05T05:15:43.686Z,6.03
2023-05-05T05:18:29.937Z,1.67
2023-05-05T05:21:15.976Z,4.72
2023-05-05T05:24:21.450Z,4.38
2023-05-05T05:27:10.195Z,0.93
2023-05-05T05:29:59.382Z,4.68
2023-05-05T05:32:45.451Z,4.57
2023-05-05T05:35:33.645Z,4.35
2023-05-05T05:38:20.023Z,4.95
2023-05-05T05:41:07.851Z,6.07
2023-05-05T05:43:57.977Z,6.40
2023-05-05T05:46:44.281Z,6.03
2023-05-05T05:49:32.805Z,5.30
2023-05-05T05:52:19.036Z,4.28
2023-05-05T05:55:05.639Z,5.65
2023-05-05T05:57:51.795Z,5.72
2023-05-05T06:00:38.851Z,6.45
2023-05-05T06:03:28.497Z,5.90
2023-05-05T06:06:14.964Z,5.95
2023-05-05T06:09:01.169Z,6.50
2023-05-05T06:11:48.437Z,5.90
2023-05-05T06:14:34.659Z,7.30
2023-05-05T06:17:21.442Z,6.10
2023-05-05T06:20:10.306Z,5.90
2023-05-05T06:22:59.138Z,5.15
2023-05-05T06:25:46.785Z,6.15
2023-05-05T06:28:51.893Z,5.15
2023-05-05T06:31:38.045Z,6.50
2023-05-05T06:34:24.149Z,6.10
2023-05-05T06:37:10.331Z,5.90
2023-05-05T06:39:56.969Z,5.43
2023-05-05T06:42:43.133Z,5.82
2023-05-05T06:45:34.848Z,5.50
2023-05-05T06:48:21.004Z,4.68
2023-05-05T06:51:07.421Z,5.38
2023-05-05T06:53:53.106Z,6.82
2023-05-05T06:56:41.258Z,6.55
2023-05-05T06:59:27.024Z,6.10
2023-05-05T07:02:15.714Z,4.32
2023-05-05T07:05:05.299Z,4.85
2023-05-05T07:07:54.861Z,5.80
2023-05-05T07:10:42.310Z,6.00
2023-05-05T07:13:29.863Z,5.75
2023-05-05T07:16:16.383Z,6.32
2023-05-05T07:19:05.531Z,6.18
2023-05-05T07:21:52.215Z,6.95
2023-05-05T07:24:41.681Z,6.75
2023-05-05T07:27:29.072Z,6.60
2023-05-05T07:30:19.456Z,7.28
2023-05-05T07:38:27.485Z,5.43
2023-05-05T07:42:09.620Z,6.22
2023-05-05T07:44:58.366Z,6.38
2023-05-05T07:47:44.768Z,6.20
2023-05-05T07:51:01.464Z,5.05
2023-05-05T07:54:13.008Z,5.93
2023-05-05T07:57:27.916Z,6.07
2023-05-05T08:00:19.555Z,4.57
2023-05-05T08:03:12.199Z,4.65
2023-05-05T08:06:06.344Z,5.53
2023-05-05T08:12:54.904Z,4.65
2023-05-05T08:15:41.203Z,4.60
2023-05-05T08:18:29.285Z,4.57
2023-05-05T08:21:16.135Z,4.78
2023-05-05T08:24:49.759Z,4.50
2023-05-05T08:28:01.038Z,4.10
2023-05-05T08:30:53.150Z,3.53
2023-05-05T08:34:36.147Z,3.33
2023-05-05T08:37:21.918Z,3.50
2023-05-05T08:40:11.797Z,4.10
2023-05-05T08:43:07.584Z,3.92
2023-05-05T08:45:56.363Z,3.13
2023-05-05T08:52:43.977Z,3.65
2023-05-05T08:55:34.161Z,3.35
2023-05-05T08:58:21.332Z,3.38
2023-05-05T09:01:12.080Z,3.30
2023-05-05T09:11:20.195Z,3.75
2023-05-05T09:17:26.658Z,3.33
2023-05-05T09:20:15.700Z,3.45
2023-05-05T09:23:26.589Z,3.80
2023-05-05T09:26:14.466Z,3.45
2023-05-05T09:29:04.116Z,3.30
2023-05-05T09:32:08.834Z,3.10
2023-05-05T09:34:59.091Z,3.58
2023-05-05T09:37:44.827Z,3.45
2023-05-05T09:40:44.337Z,3.75
2023-05-05T09:43:30.548Z,3.25
2023-05-05T09:46:16.807Z,3.35
2023-05-05T09:49:14.295Z,3.33
2023-05-05T09:52:11.588Z,3.80
2023-05-05T09:54:59.322Z,4.97
2023-05-05T09:57:47.485Z,3.67
2023-05-05T10:00:53.271Z,3.60
2023-05-05T10:07:54.593Z,3.88
2023-05-05T10:10:51.168Z,3.38
2023-05-05T10:13:43.442Z,3.80
2023-05-05T10:16:30.203Z,2.58
2023-05-05T10:19:17.632Z,3.50
2023-05-05T10:22:08.933Z,2.92
2023-05-05T10:25:25.089Z,3.28
2023-05-05T10:28:18.273Z,3.20
2023-05-05T10:31:23.939Z,2.95
2023-05-05T10:34:13.663Z,3.45
2023-05-05T10:37:06.495Z,3.47
2023-05-05T10:39:52.984Z,3.13
2023-05-05T10:42:41.442Z,3.45
2023-05-05T10:45:30.814Z,3.47
2023-05-05T10:48:23.184Z,3.30
2023-05-05T10:51:35.261Z,3.67
2023-05-05T10:54:38.552Z,3.58
2023-05-05T10:57:27.078Z,3.22
2023-05-05T11:00:35.564Z,3.70
2023-05-05T11:03:40.468Z,3.72
2023-05-05T11:06:29.666Z,3.83
2023-05-05T11:09:28.309Z,3.33
2023-05-05T11:12:14.345Z,3.88
2023-05-05T11:15:22.056Z,3.80
2023-05-05T11:18:31.882Z,3.35
2023-05-05T11:21:18.463Z,3.75
2023-05-05T11:24:27.133Z,3.58
2023-05-05T11:27:15.736Z,3.72
2023-05-05T11:30:05.738Z,3.95
2023-05-05T11:33:10.808Z,3.53
2023-05-05T11:39:50.778Z,4.10
2023-05-05T11:42:37.185Z,4.35
2023-05-05T11:45:24.058Z,3.95
2023-05-05T11:48:28.797Z,3.75
2023-05-05T11:51:16.735Z,3.47
2023-05-05T11:54:02.459Z,4.32
2023-05-05T11:56:55.538Z,3.90
2023-05-05T11:59:55.981Z,3.60
2023-05-05T12:02:43.777Z,3.83
2023-05-05T12:05:35.737Z,3.67
2023-05-05T12:08:22.392Z,4.45
2023-05-05T12:11:11.699Z,4.60
2023-05-05T12:14:10.642Z,4.40
2023-05-05T12:16:57.047Z,3.15
2023-05-05T12:19:50.929Z,4.25
2023-05-05T12:22:40.697Z,3.53
2023-05-05T12:25:34.318Z,4.45
2023-05-05T12:28:22.548Z,3.85
2023-05-05T12:31:14.691Z,4.00
2023-05-05T12:34:04.486Z,4.05
2023-05-05T12:36:57.568Z,3.60
2023-05-05T12:39:47.583Z,3.88
2023-05-05T12:42:39.196Z,4.03
2023-05-05T12:45:44.019Z,3.72
2023-05-05T12:49:07.342Z,3.58
2023-05-05T12:51:56.077Z,3.75
2023-05-05T12:55:31.391Z,4.03
2023-05-05T12:58:17.629Z,4.25
2023-05-05T13:01:13.278Z,4.00
2023-05-05T13:04:06.527Z,3.88
2023-05-05T13:07:46.691Z,3.75
2023-05-05T13:10:34.257Z,4.07
2023-05-05T13:13:20.043Z,2.97
2023-05-05T13:16:09.898Z,3.28
2023-05-05T13:18:58.295Z,2.90
2023-05-05T13:21:44.807Z,4.55
2023-05-05T13:24:42.756Z,4.45
2023-05-05T13:27:38.470Z,3.53
2023-05-05T13:30:25.602Z,4.38
2023-05-05T13:33:12.241Z,4.03
2023-05-05T13:36:05.296Z,3.95
2023-05-05T13:43:06.293Z,2.33
2023-05-05T13:50:23.942Z,1.77
2023-05-05T13:53:10.380Z,2.15
2023-05-05T13:55:57.244Z,2.25
2023-05-05T13:58:43.364Z,1.92
2023-05-05T14:01:30.261Z,2.50
2023-05-05T14:04:16.265Z,2.05
2023-05-05T14:07:02.326Z,2.20
2023-05-05T14:09:48.585Z,2.03
2023-05-05T14:12:34.948Z,2.22
2023-05-05T14:15:20.959Z,2.03
2023-05-05T14:18:09.103Z,2.20
2023-05-05T14:20:55.701Z,1.90
2023-05-05T14:23:42.141Z,2.00
2023-05-05T14:26:33.483Z,1.63
2023-05-05T14:29:23.446Z,2.00
2023-05-05T14:32:09.426Z,2.00
2023-05-05T14:34:55.531Z,2.25
2023-05-05T14:37:44.535Z,1.65
2023-05-05T14:40:31.365Z,2.08
2023-05-05T14:43:17.758Z,2.65
2023-05-05T14:46:06.918Z,2.20
2023-05-05T14:48:53.119Z,2.45
2023-05-05T14:51:39.264Z,2.10
2023-05-05T14:54:28.794Z,2.03
2023-05-05T14:57:14.727Z,1.88
2023-05-05T15:00:00.994Z,1.50
2023-05-05T15:02:48.420Z,2.85
2023-05-05T15:05:44.708Z,5.18
2023-05-05T15:08:34.887Z,2.60
2023-05-05T15:11:25.867Z,2.05
2023-05-05T15:14:12.912Z,2.72
2023-05-05T15:16:59.332Z,2.70
2023-05-05T15:19:45.685Z,2.40
2023-05-05T15:22:34.007Z,2.05
2023-05-05T15:25:23.807Z,1.65
2023-05-05T15:28:10.071Z,1.85
2023-05-05T15:30:56.238Z,2.15
2023-05-05T15:33:51.381Z,1.50
2023-05-05T15:36:40.866Z,2.95
2023-05-05T15:39:26.938Z,2.55
2023-05-05T15:42:21.556Z,1.85
2023-05-05T15:45:15.284Z,1.80
2023-05-05T15:48:04.724Z,1.80
2023-05-05T15:50:54.419Z,2.65
2023-05-05T15:53:43.256Z,4.60
2023-05-05T15:56:32.030Z,2.03
2023-05-05T15:59:19.239Z,2.00
2023-05-05T16:02:09.021Z,2.70
2023-05-05T16:04:58.020Z,3.17
2023-05-05T16:07:44.408Z,1.80
2023-05-05T16:10:30.523Z,3.15
2023-05-05T16:13:16.534Z,2.10
2023-05-05T16:19:03.100Z,2.00
2023-05-05T16:21:56.501Z,1.77
2023-05-05T16:27:30.882Z,1.85
2023-05-05T16:30:16.798Z,2.78
2023-05-05T16:33:03.154Z,3.60
2023-05-05T16:35:48.958Z,3.40
2023-05-05T16:38:35.147Z,2.25
2023-05-05T16:41:25.506Z,1.60
2023-05-05T16:44:11.758Z,1.48
2023-05-05T16:50:39.333Z,2.08
2023-05-05T16:53:25.301Z,1.80
2023-05-05T16:56:11.675Z,1.95
2023-05-05T16:58:57.615Z,1.55
2023-05-05T17:01:43.850Z,1.83
2023-05-05T17:04:30.595Z,1.85
2023-05-05T17:07:16.795Z,1.63
2023-05-05T17:10:02.798Z,1.35
2023-05-05T17:13:04.620Z,1.60
2023-05-05T17:15:51.673Z,1.67
2023-05-05T17:18:44.977Z,1.55
2023-05-05T17:21:31.031Z,1.80
2023-05-05T17:24:17.203Z,1.60
2023-05-05T17:27:03.344Z,1.52
2023-05-05T17:29:51.995Z,2.55
2023-05-05T17:32:42.002Z,2.47
2023-05-05T17:35:28.252Z,1.83
2023-05-05T17:38:14.380Z,2.10
2023-05-05T17:41:00.669Z,2.13
2023-05-05T17:43:47.262Z,1.85
2023-05-05T17:46:35.395Z,2.42
2023-05-05T17:49:21.748Z,2.25
2023-05-05T17:52:07.644Z,2.28
2023-05-05T17:54:55.934Z,2.70
2023-05-05T17:57:44.168Z,3.58
2023-05-05T18:00:30.605Z,2.67
2023-05-05T18:03:17.087Z,3.25
2023-05-05T18:06:09.950Z,2.97
2023-05-05T18:09:11.361Z,2.40
2023-05-05T18:12:10.300Z,2.33
2023-05-05T18:15:24.345Z,1.92
2023-05-05T18:18:44.425Z,2.20
2023-05-05T18:21:34.877Z,1.30
2023-05-05T18:24:21.083Z,1.90
2023-05-05T18:27:09.078Z,1.60
2023-05-05T18:30:25.266Z,1.42
2023-05-05T18:33:16.618Z,1.98
2023-05-05T18:36:12.569Z,1.83
2023-05-05T18:38:59.081Z,1.77
2023-05-05T18:41:53.483Z,1.75
2023-05-05T18:44:42.094Z,2.00
2023-05-05T18:47:30.387Z,1.85
2023-05-05T18:50:45.287Z,1.50
2023-05-05T18:53:38.884Z,1.60
2023-05-05T18:56:30.228Z,1.17
2023-05-05T18:59:33.155Z,1.20
2023-05-05T19:02:42.040Z,1.88
2023-05-05T19:05:34.569Z,1.60
2023-05-05T19:11:36.838Z,1.83
2023-05-05T19:14:24.254Z,1.70
2023-05-05T19:17:17.330Z,1.35
2023-05-05T19:20:08.217Z,1.75
2023-05-05T19:22:54.409Z,3.47
2023-05-05T19:25:50.589Z,2.80
2023-05-05T19:28:47.048Z,2.90
2023-05-05T19:31:35.513Z,2.42
2023-05-05T19:34:21.735Z,2.35
2023-05-05T19:37:15.336Z,1.83
2023-05-05T19:40:08.534Z,2.08
2023-05-05T19:42:55.793Z,2.05
2023-05-05T19:46:10.927Z,2.08
2023-05-05T19:49:02.588Z,1.90
2023-05-05T19:51:57.029Z,1.63
2023-05-05T19:54:46.762Z,1.65
2023-05-05T19:57:33.891Z,1.63
2023-05-05T20:00:23.695Z,1.85
2023-05-05T20:03:12.750Z,1.80
2023-05-05T20:05:59.169Z,1.58
2023-05-05T20:08:48.587Z,1.92
2023-05-05T20:11:34.742Z,1.70
2023-05-05T20:14:20.933Z,2.05
2023-05-05T20:17:07.768Z,1.80
2023-05-05T20:20:15.386Z,1.88
2023-05-05T20:23:01.707Z,2.55
2023-05-05T20:25:51.436Z,2.17
2023-05-05T20:28:40.001Z,2.03
2023-05-05T20:31:35.074Z,1.90
2023-05-05T20:34:28.981Z,3.30
2023-05-05T20:37:15.105Z,3.60
2023-05-05T20:40:09.095Z,3.70
2023-05-05T20:42:56.005Z,1.87
2023-05-05T20:45:42.996Z,1.55
2023-05-05T20:48:32.024Z,2.03
2023-05-05T20:54:10.086Z,2.55
2023-05-05T20:57:07.180Z,2.78
2023-05-05T20:59:57.345Z,2.60
2023-05-05T21:02:46.633Z,2.95
2023-05-05T21:05:33.124Z,3.17
2023-05-05T21:08:23.749Z,3.30
2023-05-05T21:11:10.073Z,3.50
2023-05-05T21:13:58.582Z,2.90
2023-05-05T21:16:47.023Z,2.72
2023-05-05T21:19:38.799Z,3.10
2023-05-05T21:22:27.711Z,3.30
2023-05-05T21:25:19.892Z,2.60
2023-05-05T21:33:41.729Z,2.45
2023-05-05T21:36:27.979Z,2.70
2023-05-05T21:39:16.619Z,2.72
2023-05-05T21:42:02.866Z,2.63
2023-05-05T21:44:49.178Z,2.10
2023-05-05T21:47:35.220Z,1.83
2023-05-05T21:50:21.702Z,1.77
2023-05-05T21:53:07.542Z,1.98
2023-05-05T21:55:53.896Z,2.03
2023-05-05T21:58:44.186Z,2.05
2023-05-05T22:01:33.795Z,2.00
2023-05-05T22:04:19.950Z,2.17
2023-05-05T22:07:08.784Z,2.25
2023-05-05T22:10:03.728Z,2.13
2023-05-05T22:12:49.956Z,2.35
2023-05-05T22:15:45.962Z,2.05
2023-05-05T22:18:38.688Z,3.35
2023-05-05T22:21:24.697Z,4.57
2023-05-05T22:24:11.509Z,2.53
2023-05-05T22:26:58.377Z,2.42
2023-05-05T22:29:44.940Z,2.35
2023-05-05T22:32:31.453Z,3.00
2023-05-05T22:35:37.152Z,3.05
2023-05-05T22:38:23.502Z,2.72
2023-05-05T22:41:12.107Z,2.72
2023-05-05T22:44:07.144Z,2.55
2023-05-05T22:46:53.180Z,2.38
2023-05-05T22:49:39.464Z,2.25
2023-05-05T22:55:37.919Z,2.17
2023-05-05T22:59:27.369Z,2.38
2023-05-05T23:03:15.780Z,4.47
2023-05-05T23:06:25.262Z,4.20
2023-05-05T23:09:11.448Z,4.38
2023-05-05T23:11:57.588Z,4.80
2023-05-05T23:14:44.016Z,4.07
2023-05-05T23:17:31.546Z,3.55
2023-05-05T23:20:52.316Z,3.85
2023-05-05T23:27:30.188Z,2.95
2023-05-05T23:30:17.357Z,3.20
2023-05-05T23:37:28.874Z,2.78
2023-05-05T23:45:19.319Z,2.70
2023-05-05T23:48:06.896Z,2.35
2023-05-05T23:50:56.749Z,2.50
2023-05-05T23:54:02.288Z,3.33
2023-05-05T23:59:51.478Z,2.80
